createdAt,value
2023-02-12T00:01:29.290Z,20.20
2023-02-12T00:04:02.142Z,17.80
2023-02-12T00:06:34.132Z,16.90
2023-02-12T00:09:06.612Z,21.50
2023-02-12T00:11:38.654Z,20.20
2023-02-12T00:14:10.946Z,19.80
2023-02-12T00:16:44.002Z,20.50
2023-02-12T00:19:16.744Z,18.30
2023-02-12T00:21:48.932Z,19.30
2023-02-12T00:24:21.784Z,18.90
2023-02-12T00:26:53.791Z,18.90
2023-02-12T00:29:26.211Z,18.40
2023-02-12T00:31:58.845Z,17.40
2023-02-12T00:34:33.095Z,16.60
2023-02-12T00:37:05.571Z,17.80
2023-02-12T00:39:38.470Z,20.40
2023-02-12T00:42:10.891Z,19.60
2023-02-12T00:44:43.080Z,17.10
2023-02-12T00:47:17.315Z,16.80
2023-02-12T00:49:49.551Z,17.80
2023-02-12T00:52:22.689Z,10.80
2023-02-12T00:54:55.700Z,17.40
2023-02-12T00:57:28.302Z,17.60
2023-02-12T01:00:02.260Z,15.20
2023-02-12T01:02:34.637Z,20.90
2023-02-12T01:05:07.310Z,19.60
2023-02-12T01:07:41.114Z,17.50
2023-02-12T01:10:14.124Z,27.50
2023-02-12T01:12:46.715Z,47.90
2023-02-12T01:15:20.117Z,25.30
2023-02-12T01:17:54.693Z,30.00
2023-02-12T01:20:28.324Z,36.10
2023-02-12T01:23:01.865Z,26.80
2023-02-12T01:28:04.152Z,20.30
2023-02-12T01:30:36.477Z,35.20
2023-02-12T01:33:08.994Z,29.80
2023-02-12T01:35:42.886Z,30.10
2023-02-12T01:38:15.375Z,32.00
2023-02-12T01:40:47.735Z,27.50
2023-02-12T01:43:19.728Z,31.00
2023-02-12T01:45:56.156Z,26.80
2023-02-12T01:48:50.276Z,22.90
2023-02-12T01:51:26.084Z,28.30
2023-02-12T01:54:00.739Z,23.00
2023-02-12T01:56:34.057Z,27.60
2023-02-12T01:59:06.868Z,30.80
2023-02-12T02:01:39.366Z,30.30
2023-02-12T02:04:17.518Z,32.60
2023-02-12T02:06:54.660Z,30.80
2023-02-12T02:09:30.100Z,30.10
2023-02-12T02:12:20.895Z,31.20
2023-02-12T02:14:56.196Z,27.30
2023-02-12T02:17:48.737Z,27.90
2023-02-12T02:20:44.437Z,31.20
2023-02-12T02:24:00.334Z,27.20
2023-02-12T02:27:04.691Z,28.70
2023-02-12T02:32:25.058Z,29.70
2023-02-12T02:35:03.972Z,24.70
2023-02-12T02:37:42.316Z,27.80
2023-02-12T02:40:19.782Z,28.40
2023-02-12T02:42:56.803Z,25.80
2023-02-12T02:45:35.211Z,25.20
2023-02-12T02:48:11.952Z,26.60
2023-02-12T02:50:49.423Z,24.90
2023-02-12T02:53:28.342Z,24.60
2023-02-12T02:56:04.949Z,23.80
2023-02-12T02:58:41.093Z,26.30
2023-02-12T03:01:18.314Z,29.50
2023-02-12T03:03:55.100Z,25.20
2023-02-12T03:06:32.289Z,27.90
2023-02-12T03:09:11.511Z,24.60
2023-02-12T03:11:43.842Z,25.80
2023-02-12T03:14:22.720Z,25.10
2023-02-12T03:17:01.630Z,34.30
2023-02-12T03:19:38.773Z,24.70
2023-02-12T03:22:14.341Z,28.40
2023-02-12T03:24:49.912Z,30.00
2023-02-12T03:27:28.146Z,23.20
2023-02-12T03:30:01.457Z,26.00
2023-02-12T03:32:41.745Z,16.60
2023-02-12T03:35:19.349Z,21.60
2023-02-12T03:37:57.735Z,19.10
2023-02-12T03:40:35.674Z,24.90
2023-02-12T03:43:11.628Z,22.10
2023-02-12T03:45:48.948Z,23.60
2023-02-12T03:48:28.011Z,22.90
2023-02-12T03:51:05.470Z,25.00
2023-02-12T03:53:38.134Z,23.80
2023-02-12T03:56:15.155Z,18.70
2023-02-12T03:58:47.964Z,20.70
2023-02-12T04:01:21.060Z,19.90
2023-02-12T04:03:53.779Z,24.10
2023-02-12T04:06:29.032Z,20.20
2023-02-12T04:09:08.744Z,17.90
2023-02-12T04:11:55.858Z,21.00
2023-02-12T04:14:36.301Z,18.60
2023-02-12T04:17:11.562Z,17.70
2023-02-12T04:19:55.132Z,16.30
2023-02-12T04:22:39.629Z,20.90
2023-02-12T04:25:22.781Z,16.80
2023-02-12T04:28:03.480Z,18.40
2023-02-12T04:30:40.264Z,16.30
2023-02-12T04:33:18.345Z,18.70
2023-02-12T04:35:54.856Z,18.30
2023-02-12T04:38:31.195Z,18.60
2023-02-12T04:41:04.653Z,18.20
2023-02-12T04:43:38.901Z,16.60
2023-02-12T04:46:11.971Z,13.80
2023-02-12T04:48:56.753Z,14.90
2023-02-12T04:51:28.929Z,16.60
2023-02-12T04:54:01.275Z,13.90
2023-02-12T04:56:33.447Z,16.70
2023-02-12T04:59:05.925Z,11.80
2023-02-12T05:01:40.249Z,11.40
2023-02-12T05:04:14.513Z,14.60
2023-02-12T05:06:47.595Z,12.10
2023-02-12T05:09:21.977Z,12.30
2023-02-12T05:11:54.088Z,10.30
2023-02-12T05:14:27.455Z,11.60
2023-02-12T05:16:59.547Z,10.70
2023-02-12T05:19:31.730Z,11.20
2023-02-12T05:22:03.848Z,8.20
2023-02-12T05:24:35.981Z,11.20
2023-02-12T05:27:09.557Z,9.20
2023-02-12T05:29:41.800Z,7.00
2023-02-12T05:32:14.098Z,7.10
2023-02-12T05:34:46.459Z,7.20
2023-02-12T05:37:18.626Z,5.90
2023-02-12T05:39:52.185Z,7.70
2023-02-12T05:42:24.362Z,9.50
2023-02-12T05:44:56.863Z,6.30
2023-02-12T05:47:29.657Z,5.90
2023-02-12T05:50:01.886Z,4.30
2023-02-12T05:52:34.132Z,6.50
2023-02-12T05:55:06.902Z,4.50
2023-02-12T05:57:39.194Z,6.70
2023-02-12T06:00:13.454Z,6.00
2023-02-12T06:02:45.519Z,5.70
2023-02-12T06:05:17.909Z,5.10
2023-02-12T06:07:49.993Z,5.40
2023-02-12T06:10:22.731Z,6.30
2023-02-12T06:12:58.441Z,6.90
2023-02-12T06:15:30.578Z,6.80
2023-02-12T06:18:03.002Z,5.50
2023-02-12T06:20:35.022Z,5.60
2023-02-12T06:23:07.091Z,7.80
2023-02-12T06:25:40.223Z,5.30
2023-02-12T06:28:12.959Z,4.40
2023-02-12T06:30:45.764Z,4.50
2023-02-12T06:33:18.233Z,7.20
2023-02-12T06:35:50.289Z,6.20
2023-02-12T06:38:23.121Z,6.20
2023-02-12T06:40:55.235Z,6.50
2023-02-12T06:43:27.537Z,7.80
2023-02-12T06:46:04.225Z,11.30
2023-02-12T06:48:39.736Z,15.50
2023-02-12T06:51:14.856Z,7.30
2023-02-12T06:53:48.076Z,5.00
2023-02-12T06:56:21.881Z,4.80
2023-02-12T06:58:59.168Z,6.30
2023-02-12T07:01:33.182Z,6.10
2023-02-12T07:04:06.994Z,6.20
2023-02-12T07:06:40.604Z,6.20
2023-02-12T07:09:13.586Z,6.20
2023-02-12T07:11:46.882Z,5.30
2023-02-12T07:14:20.921Z,5.50
2023-02-12T07:16:56.955Z,6.80
2023-02-12T07:19:29.896Z,6.40
2023-02-12T07:22:02.238Z,4.10
2023-02-12T07:24:34.567Z,4.90
2023-02-12T07:27:09.762Z,6.60
2023-02-12T07:29:42.712Z,9.10
2023-02-12T07:32:15.141Z,12.70
2023-02-12T07:34:48.668Z,10.70
2023-02-12T07:37:23.235Z,8.70
2023-02-12T07:39:55.158Z,7.20
2023-02-12T07:42:27.297Z,7.30
2023-02-12T07:44:59.317Z,7.40
2023-02-12T07:47:31.451Z,6.90
2023-02-12T07:50:05.387Z,5.40
2023-02-12T07:55:08.950Z,6.80
2023-02-12T07:57:41.070Z,6.40
2023-02-12T08:00:15.158Z,6.80
2023-02-12T08:02:52.305Z,7.00
2023-02-12T08:05:24.356Z,5.80
2023-02-12T08:07:56.679Z,6.30
2023-02-12T08:10:31.415Z,6.20
2023-02-12T08:13:05.388Z,4.40
2023-02-12T08:15:37.558Z,7.90
2023-02-12T08:18:10.134Z,7.90
2023-02-12T08:20:42.917Z,5.20
2023-02-12T08:23:15.050Z,7.30
2023-02-12T08:25:47.267Z,6.70
2023-02-12T08:28:34.420Z,7.70
2023-02-12T08:31:12.644Z,8.70
2023-02-12T08:33:45.834Z,10.10
2023-02-12T08:36:23.387Z,6.40
2023-02-12T08:38:59.099Z,8.90
2023-02-12T08:41:33.165Z,4.70
2023-02-12T08:44:06.788Z,3.50
2023-02-12T08:49:13.132Z,3.90
2023-02-12T08:51:48.911Z,4.40
2023-02-12T08:54:22.925Z,4.40
2023-02-12T08:56:58.320Z,4.50
2023-02-12T08:59:31.235Z,4.10
2023-02-12T09:02:04.617Z,4.20
2023-02-12T09:04:37.602Z,5.10
2023-02-12T09:07:11.027Z,4.50
2023-02-12T09:09:43.182Z,5.00
2023-02-12T09:12:15.316Z,4.00
2023-02-12T09:14:47.658Z,4.60
2023-02-12T09:17:19.980Z,7.00
2023-02-12T09:19:52.062Z,5.10
2023-02-12T09:22:24.050Z,5.90
2023-02-12T09:24:58.422Z,5.20
2023-02-12T09:27:31.423Z,4.40
2023-02-12T09:30:06.608Z,5.20
2023-02-12T09:32:38.648Z,4.10
2023-02-12T09:35:13.209Z,2.80
2023-02-12T09:37:46.296Z,6.00
2023-02-12T09:40:27.218Z,3.50
2023-02-12T09:43:12.652Z,5.30
2023-02-12T09:45:51.428Z,3.30
2023-02-12T09:48:49.776Z,5.30
2023-02-12T09:51:22.591Z,4.20
2023-02-12T09:54:02.232Z,7.60
2023-02-12T09:56:35.915Z,5.70
2023-02-12T09:59:10.460Z,4.00
2023-02-12T10:01:42.942Z,4.40
2023-02-12T10:04:16.572Z,7.70
2023-02-12T10:09:46.489Z,3.70
2023-02-12T10:12:31.469Z,4.80
2023-02-12T10:15:30.064Z,3.60
2023-02-12T10:18:18.098Z,4.70
2023-02-12T10:21:11.050Z,5.40
2023-02-12T10:24:07.741Z,4.80
2023-02-12T10:26:43.701Z,3.70
2023-02-12T10:29:21.160Z,4.10
2023-02-12T10:32:02.003Z,5.00
2023-02-12T10:34:38.460Z,4.00
2023-02-12T10:37:20.767Z,4.60
2023-02-12T10:39:58.592Z,4.40
2023-02-12T10:42:40.782Z,3.40
2023-02-12T10:45:20.494Z,3.50
2023-02-12T10:48:05.188Z,4.80
2023-02-12T10:50:51.276Z,5.10
2023-02-12T10:53:25.745Z,4.10
2023-02-12T10:56:15.689Z,2.80
2023-02-12T10:58:55.990Z,4.30
2023-02-12T11:01:30.980Z,4.20
2023-02-12T11:04:21.792Z,4.90
2023-02-12T11:07:03.849Z,5.40
2023-02-12T11:09:45.713Z,3.90
2023-02-12T11:12:36.014Z,5.60
2023-02-12T11:15:15.969Z,4.60
2023-02-12T11:17:57.464Z,5.70
2023-02-12T11:20:34.441Z,4.70
2023-02-12T11:23:08.749Z,6.50
2023-02-12T11:25:56.648Z,7.10
2023-02-12T11:28:29.835Z,7.10
2023-02-12T11:31:05.181Z,13.20
2023-02-12T11:33:39.239Z,9.30
2023-02-12T11:36:23.382Z,9.20
2023-02-12T11:41:34.778Z,6.20
2023-02-12T11:44:13.648Z,6.20
2023-02-12T11:46:52.100Z,12.40
2023-02-12T11:49:29.067Z,23.00
2023-02-12T11:52:05.187Z,56.30
2023-02-12T11:54:44.120Z,10.70
2023-02-12T11:57:39.677Z,9.10
2023-02-12T12:00:18.915Z,9.00
2023-02-12T12:03:03.219Z,7.80
2023-02-12T12:05:40.343Z,6.70
2023-02-12T12:08:22.504Z,9.00
2023-02-12T12:10:59.992Z,11.80
2023-02-12T12:13:37.444Z,10.10
2023-02-12T12:16:32.113Z,9.60
2023-02-12T12:19:27.212Z,8.80
2023-02-12T12:22:07.033Z,9.40
2023-02-12T12:24:47.116Z,9.00
2023-02-12T12:27:42.644Z,8.60
2023-02-12T12:30:24.292Z,10.70
2023-02-12T12:32:58.736Z,10.80
2023-02-12T12:35:40.785Z,10.60
2023-02-12T12:38:29.968Z,8.10
2023-02-12T12:41:12.024Z,11.10
2023-02-12T12:43:56.914Z,15.40
2023-02-12T12:46:36.586Z,12.40
2023-02-12T12:49:24.228Z,14.30
2023-02-12T12:52:12.402Z,16.90
2023-02-12T12:55:01.074Z,10.90
2023-02-12T12:57:48.115Z,16.80
2023-02-12T13:00:31.594Z,16.30
2023-02-12T13:03:41.217Z,8.00
2023-02-12T13:06:31.866Z,8.80
2023-02-12T13:09:26.638Z,9.80
2023-02-12T13:12:22.817Z,8.00
2023-02-12T13:15:04.638Z,9.90
2023-02-12T13:17:46.335Z,8.10
2023-02-12T13:20:24.889Z,9.50
2023-02-12T13:23:03.025Z,13.20
2023-02-12T13:25:41.939Z,11.90
2023-02-12T13:28:23.139Z,9.70
2023-02-12T13:30:58.085Z,11.40
2023-02-12T13:33:44.010Z,11.20
2023-02-12T13:36:17.168Z,16.00
2023-02-12T13:38:53.803Z,12.20
2023-02-12T13:41:27.524Z,12.50
2023-02-12T13:44:09.065Z,9.60
2023-02-12T13:46:53.862Z,11.60
2023-02-12T13:49:39.914Z,12.20
2023-02-12T13:52:21.039Z,10.40
2023-02-12T13:55:07.907Z,12.00
2023-02-12T13:57:41.737Z,12.20
2023-02-12T14:03:20.300Z,10.40
2023-02-12T14:06:14.086Z,11.90
2023-02-12T14:08:55.778Z,28.80
2023-02-12T14:11:32.268Z,32.80
2023-02-12T14:14:11.354Z,35.10
2023-02-12T14:16:47.767Z,24.60
2023-02-12T14:19:56.224Z,26.30
2023-02-12T14:23:04.516Z,25.40
2023-02-12T14:25:46.677Z,25.40
2023-02-12T14:28:31.414Z,21.80
2023-02-12T14:31:40.319Z,21.10
2023-02-12T14:34:46.192Z,17.60
2023-02-12T14:37:43.358Z,21.20
2023-02-12T14:40:46.689Z,20.90
2023-02-12T14:44:00.341Z,16.00
2023-02-12T14:46:57.502Z,19.90
2023-02-12T14:49:37.905Z,21.20
2023-02-12T14:52:23.529Z,21.30
2023-02-12T14:55:08.625Z,18.80
2023-02-12T14:57:48.995Z,18.60
2023-02-12T15:00:34.053Z,26.10
2023-02-12T15:03:23.966Z,20.30
2023-02-12T15:06:18.039Z,34.60
2023-02-12T15:08:56.437Z,33.00
2023-02-12T15:11:46.460Z,25.80
2023-02-12T15:14:23.271Z,22.90
2023-02-12T15:17:04.991Z,22.50
2023-02-12T15:19:45.459Z,21.00
2023-02-12T15:22:32.441Z,23.40
2023-02-12T15:25:27.266Z,24.30
2023-02-12T15:28:02.446Z,27.40
2023-02-12T15:30:38.215Z,23.40
2023-02-12T15:33:25.152Z,22.20
2023-02-12T15:35:58.597Z,22.10
2023-02-12T15:38:36.424Z,18.10
2023-02-12T15:41:09.885Z,19.30
2023-02-12T15:43:58.390Z,16.70
2023-02-12T15:46:34.387Z,20.00
2023-02-12T15:49:22.613Z,30.40
2023-02-12T15:51:54.754Z,21.30
2023-02-12T15:54:28.983Z,16.20
2023-02-12T15:57:02.255Z,18.50
2023-02-12T15:59:34.346Z,16.70
2023-02-12T16:02:19.081Z,19.60
2023-02-12T16:04:54.435Z,24.60
2023-02-12T16:07:27.368Z,28.20
2023-02-12T16:09:59.914Z,26.60
2023-02-12T16:12:37.929Z,24.20
2023-02-12T16:15:24.481Z,43.00
2023-02-12T16:17:58.733Z,37.20
2023-02-12T16:20:32.285Z,26.80
2023-02-12T16:23:10.702Z,30.10
2023-02-12T16:25:46.603Z,30.80
2023-02-12T16:28:25.760Z,31.00
2023-02-12T16:31:12.685Z,31.20
2023-02-12T16:33:50.061Z,31.40
2023-02-12T16:36:33.643Z,38.40
2023-02-12T16:39:08.829Z,39.00
2023-02-12T16:42:00.999Z,36.90
2023-02-12T16:44:34.434Z,44.30
2023-02-12T16:47:07.253Z,45.80
2023-02-12T16:49:39.385Z,48.30
2023-02-12T16:52:35.206Z,53.90
2023-02-12T16:55:14.586Z,47.90
2023-02-12T16:57:51.095Z,43.90
2023-02-12T17:00:26.451Z,51.00
2023-02-12T17:02:59.364Z,113.70
2023-02-12T17:05:31.362Z,58.40
2023-02-12T17:08:03.480Z,61.10
2023-02-12T17:10:35.477Z,65.70
2023-02-12T17:13:08.209Z,99.20
2023-02-12T17:18:15.981Z,97.60
2023-02-12T17:20:53.537Z,53.60
2023-02-12T17:23:28.656Z,47.80
2023-02-12T17:26:02.556Z,40.20
2023-02-12T17:28:34.639Z,43.90
2023-02-12T17:31:07.904Z,35.50
2023-02-12T17:33:40.016Z,30.40
2023-02-12T17:36:13.672Z,33.80
2023-02-12T17:41:17.014Z,33.50
2023-02-12T17:43:50.362Z,46.50
2023-02-12T17:46:26.786Z,43.70
2023-02-12T17:48:59.855Z,35.60
2023-02-12T17:51:33.344Z,31.40
2023-02-12T17:54:06.280Z,35.20
2023-02-12T17:56:38.396Z,39.00
2023-02-12T17:59:16.787Z,35.80
2023-02-12T18:01:49.014Z,34.20
2023-02-12T18:04:23.125Z,31.50
2023-02-12T18:06:55.618Z,28.30
2023-02-12T18:09:30.228Z,29.20
2023-02-12T18:12:02.636Z,31.00
2023-02-12T18:14:34.776Z,33.50
2023-02-12T18:17:06.845Z,23.20
2023-02-12T18:19:39.057Z,32.10
2023-02-12T18:22:12.425Z,34.40
2023-02-12T18:24:45.578Z,39.10
2023-02-12T18:27:19.005Z,39.80
2023-02-12T18:29:51.566Z,40.60
2023-02-12T18:32:26.977Z,55.70
2023-02-12T18:35:01.922Z,44.70
2023-02-12T18:37:35.577Z,44.10
2023-02-12T18:40:09.356Z,49.60
2023-02-12T18:45:13.728Z,41.00
2023-02-12T18:47:45.985Z,35.10
2023-02-12T18:50:19.670Z,38.50
2023-02-12T18:52:51.775Z,38.90
2023-02-12T18:55:24.966Z,35.00
2023-02-12T18:57:57.051Z,30.60
2023-02-12T19:00:29.475Z,36.40
2023-02-12T19:03:01.899Z,38.00
2023-02-12T19:05:34.331Z,45.20
2023-02-12T19:08:06.765Z,47.50
2023-02-12T19:10:47.780Z,36.20
2023-02-12T19:13:23.493Z,35.20
2023-02-12T19:15:55.884Z,35.00
2023-02-12T19:18:28.365Z,37.10
2023-02-12T19:21:01.583Z,38.10
2023-02-12T19:23:34.881Z,43.60
2023-02-12T19:26:09.051Z,41.20
2023-02-12T19:28:42.033Z,41.10
2023-02-12T19:31:15.865Z,42.10
2023-02-12T19:33:49.449Z,51.60
2023-02-12T19:36:22.792Z,38.00
2023-02-12T19:38:55.404Z,45.70
2023-02-12T19:41:29.984Z,32.10
2023-02-12T19:44:03.686Z,40.00
2023-02-12T19:46:39.120Z,46.40
2023-02-12T19:49:17.216Z,43.60
2023-02-12T19:51:52.358Z,43.00
2023-02-12T19:54:26.142Z,47.30
2023-02-12T19:56:58.416Z,47.20
2023-02-12T19:59:31.515Z,50.70
2023-02-12T20:02:05.134Z,50.90
2023-02-12T20:04:37.819Z,65.00
2023-02-12T20:07:10.259Z,71.10
2023-02-12T20:09:44.355Z,68.90
2023-02-12T20:12:16.715Z,66.10
2023-02-12T20:14:49.559Z,63.70
2023-02-12T20:17:24.567Z,65.20
2023-02-12T20:19:57.318Z,65.90
2023-02-12T20:22:29.549Z,67.10
2023-02-12T20:25:01.882Z,59.90
2023-02-12T20:27:37.021Z,65.40
2023-02-12T20:30:13.176Z,68.00
2023-02-12T20:32:45.932Z,65.40
2023-02-12T20:35:19.791Z,48.60
2023-02-12T20:37:52.133Z,63.40
2023-02-12T20:40:24.690Z,54.70
2023-02-12T20:42:56.806Z,55.60
2023-02-12T20:45:29.598Z,59.50
2023-02-12T20:48:02.306Z,63.30
2023-02-12T20:50:34.648Z,60.60
2023-02-12T20:53:07.696Z,65.60
2023-02-12T20:55:39.764Z,61.70
2023-02-12T20:58:11.884Z,64.00
2023-02-12T21:00:43.975Z,68.20
2023-02-12T21:03:16.014Z,70.20
2023-02-12T21:05:49.116Z,66.00
2023-02-12T21:08:21.717Z,68.90
2023-02-12T21:11:01.401Z,63.30
2023-02-12T21:13:35.412Z,70.30
2023-02-12T21:16:14.154Z,71.20
2023-02-12T21:18:46.949Z,62.30
2023-02-12T21:21:21.968Z,66.90
2023-02-12T21:23:55.951Z,65.60
2023-02-12T21:26:30.899Z,63.30
2023-02-12T21:29:05.143Z,64.30
2023-02-12T21:31:41.315Z,60.70
2023-02-12T21:34:16.917Z,58.20
2023-02-12T21:36:50.998Z,61.80
2023-02-12T21:39:26.712Z,61.20
2023-02-12T21:42:00.391Z,58.80
2023-02-12T21:44:35.773Z,52.60
2023-02-12T21:47:09.012Z,49.20
2023-02-12T21:49:43.783Z,38.10
2023-02-12T21:52:15.849Z,52.40
2023-02-12T21:54:51.612Z,53.10
2023-02-12T21:57:23.577Z,56.70
2023-02-12T21:59:55.647Z,56.30
2023-02-12T22:02:27.762Z,60.20
2023-02-12T22:04:59.813Z,58.70
2023-02-12T22:07:31.921Z,53.40
2023-02-12T22:10:04.057Z,56.40
2023-02-12T22:12:38.179Z,54.70
2023-02-12T22:17:41.113Z,51.80
2023-02-12T22:20:14.403Z,57.10
2023-02-12T22:22:46.640Z,59.10
2023-02-12T22:25:18.880Z,58.10
2023-02-12T22:27:51.049Z,56.00
2023-02-12T22:30:24.747Z,61.50
2023-02-12T22:32:56.767Z,56.80
2023-02-12T22:35:28.767Z,59.80
2023-02-12T22:38:01.176Z,58.90
2023-02-12T22:40:33.549Z,43.00
2023-02-12T22:43:05.699Z,62.00
2023-02-12T22:45:38.013Z,55.00
2023-02-12T22:48:12.107Z,57.90
2023-02-12T22:50:44.167Z,57.60
2023-02-12T22:53:16.643Z,60.20
2023-02-12T22:55:49.644Z,62.30
2023-02-12T22:58:23.664Z,60.70
2023-02-12T23:00:56.249Z,57.00
2023-02-12T23:03:31.911Z,59.00
2023-02-12T23:06:07.398Z,54.00
2023-02-12T23:08:39.898Z,58.50
2023-02-12T23:11:12.455Z,60.20
2023-02-12T23:13:44.749Z,57.00
2023-02-12T23:16:16.736Z,69.90
2023-02-12T23:18:49.471Z,59.50
2023-02-12T23:21:21.475Z,57.60
2023-02-12T23:23:53.824Z,56.40
2023-02-12T23:26:29.315Z,54.20
2023-02-12T23:29:01.529Z,53.10
2023-02-12T23:31:34.027Z,54.20
2023-02-12T23:34:06.514Z,54.20
2023-02-12T23:36:38.718Z,47.80
2023-02-12T23:39:12.144Z,55.80
2023-02-12T23:41:44.234Z,57.10
2023-02-12T23:44:16.627Z,54.70
2023-02-12T23:46:52.143Z,62.50
2023-02-12T23:49:24.768Z,52.30
2023-02-12T23:51:56.913Z,53.30
2023-02-12T23:54:29.244Z,46.90
2023-02-12T23:57:02.785Z,51.20
2023-02-12T23:59:34.760Z,62.20
